sensor_id;sensor_type;location;lat;lon;timestamp;P1;durP1;ratioP1;P2;durP2;ratioP2
39600;SDS011;25297;44.758;11.310;2023-02-01T00:01:51;54.42;;;31.65;;
39600;SDS011;25297;44.758;11.310;2023-02-01T00:04:16;53.30;;;28.20;;
39600;SDS011;25297;44.758;11.310;2023-02-01T00:06:42;48.03;;;27.70;;
39600;SDS011;25297;44.758;11.310;2023-02-01T00:09:07;51.13;;;28.75;;
39600;SDS011;25297;44.758;11.310;2023-02-01T00:11:33;48.80;;;27.92;;
39600;SDS011;25297;44.758;11.310;2023-02-01T00:13:59;47.72;;;26.70;;
39600;SDS011;25297;44.758;11.310;2023-02-01T00:16:26;57.08;;;27.63;;
39600;SDS011;25297;44.758;11.310;2023-02-01T00:19:04;50.83;;;28.40;;
39600;SDS011;25297;44.758;11.310;2023-02-01T00:21:40;43.70;;;27.63;;
39600;SDS011;25297;44.758;11.310;2023-02-01T00:24:06;47.03;;;27.33;;
39600;SDS011;25297;44.758;11.310;2023-02-01T00:29:03;57.17;;;30.80;;
39600;SDS011;25297;44.758;11.310;2023-02-01T00:31:30;49.08;;;29.27;;
39600;SDS011;25297;44.758;11.310;2023-02-01T00:33:56;45.47;;;27.70;;
39600;SDS011;25297;44.758;11.310;2023-02-01T00:36:22;46.78;;;28.00;;
39600;SDS011;25297;44.758;11.310;2023-02-01T00:38:47;50.17;;;27.77;;
39600;SDS011;25297;44.758;11.310;2023-02-01T00:41:14;53.80;;;27.63;;
39600;SDS011;25297;44.758;11.310;2023-02-01T00:43:42;51.72;;;28.15;;
39600;SDS011;25297;44.758;11.310;2023-02-01T00:46:09;43.45;;;25.65;;
39600;SDS011;25297;44.758;11.310;2023-02-01T00:48:36;43.78;;;25.55;;
39600;SDS011;25297;44.758;11.310;2023-02-01T00:51:06;43.83;;;24.92;;
39600;SDS011;25297;44.758;11.310;2023-02-01T00:53:33;43.78;;;24.85;;
39600;SDS011;25297;44.758;11.310;2023-02-01T00:55:59;48.90;;;27.13;;
39600;SDS011;25297;44.758;11.310;2023-02-01T00:58:25;45.83;;;25.13;;
39600;SDS011;25297;44.758;11.310;2023-02-01T01:03:29;40.22;;;23.40;;
39600;SDS011;25297;44.758;11.310;2023-02-01T01:05:58;46.85;;;25.92;;
39600;SDS011;25297;44.758;11.310;2023-02-01T01:08:24;37.10;;;24.33;;
39600;SDS011;25297;44.758;11.310;2023-02-01T01:10:50;44.65;;;24.38;;
39600;SDS011;25297;44.758;11.310;2023-02-01T01:13:16;41.03;;;24.20;;
39600;SDS011;25297;44.758;11.310;2023-02-01T01:15:41;45.55;;;25.40;;
39600;SDS011;25297;44.758;11.310;2023-02-01T01:18:07;41.67;;;24.85;;
39600;SDS011;25297;44.758;11.310;2023-02-01T01:20:34;39.90;;;23.80;;
39600;SDS011;25297;44.758;11.310;2023-02-01T01:23:01;50.83;;;26.42;;
39600;SDS011;25297;44.758;11.310;2023-02-01T01:25:28;45.65;;;26.13;;
39600;SDS011;25297;44.758;11.310;2023-02-01T01:27:53;52.25;;;27.35;;
39600;SDS011;25297;44.758;11.310;2023-02-01T01:30:19;43.58;;;26.00;;
39600;SDS011;25297;44.758;11.310;2023-02-01T01:32:45;46.20;;;26.02;;
39600;SDS011;25297;44.758;11.310;2023-02-01T01:35:10;47.53;;;27.00;;
39600;SDS011;25297;44.758;11.310;2023-02-01T01:37:36;46.50;;;27.35;;
39600;SDS011;25297;44.758;11.310;2023-02-01T01:40:03;52.60;;;28.42;;
39600;SDS011;25297;44.758;11.310;2023-02-01T01:42:30;49.60;;;29.23;;
39600;SDS011;25297;44.758;11.310;2023-02-01T01:45:06;47.45;;;28.08;;
39600;SDS011;25297;44.758;11.310;2023-02-01T01:47:43;42.22;;;24.60;;
39600;SDS011;25297;44.758;11.310;2023-02-01T01:50:14;40.58;;;24.90;;
39600;SDS011;25297;44.758;11.310;2023-02-01T01:52:42;47.88;;;28.30;;
39600;SDS011;25297;44.758;11.310;2023-02-01T01:55:13;50.70;;;28.25;;
39600;SDS011;25297;44.758;11.310;2023-02-01T01:57:42;46.22;;;28.13;;
39600;SDS011;25297;44.758;11.310;2023-02-01T02:00:12;47.05;;;26.35;;
39600;SDS011;25297;44.758;11.310;2023-02-01T02:02:40;52.47;;;28.20;;
39600;SDS011;25297;44.758;11.310;2023-02-01T02:05:09;50.38;;;27.83;;
39600;SDS011;25297;44.758;11.310;2023-02-01T02:07:37;50.13;;;26.60;;
39600;SDS011;25297;44.758;11.310;2023-02-01T02:10:07;46.55;;;27.67;;
39600;SDS011;25297;44.758;11.310;2023-02-01T02:12:40;45.05;;;26.60;;
39600;SDS011;25297;44.758;11.310;2023-02-01T02:15:09;51.75;;;28.75;;
39600;SDS011;25297;44.758;11.310;2023-02-01T02:17:52;44.95;;;25.45;;
39600;SDS011;25297;44.758;11.310;2023-02-01T02:44:21;53.77;;;30.10;;
39600;SDS011;25297;44.758;11.310;2023-02-01T02:47:44;51.33;;;27.70;;
39600;SDS011;25297;44.758;11.310;2023-02-01T02:53:38;47.47;;;27.27;;
39600;SDS011;25297;44.758;11.310;2023-02-01T02:56:30;49.42;;;27.70;;
39600;SDS011;25297;44.758;11.310;2023-02-01T02:59:17;49.63;;;27.23;;
39600;SDS011;25297;44.758;11.310;2023-02-01T03:02:05;44.55;;;26.48;;
39600;SDS011;25297;44.758;11.310;2023-02-01T03:04:54;45.85;;;26.88;;
39600;SDS011;25297;44.758;11.310;2023-02-01T03:15:50;58.60;;;28.27;;
39600;SDS011;25297;44.758;11.310;2023-02-01T03:18:36;44.17;;;26.63;;
39600;SDS011;25297;44.758;11.310;2023-02-01T03:21:09;52.22;;;28.65;;
39600;SDS011;25297;44.758;11.310;2023-02-01T03:23:41;44.42;;;26.48;;
39600;SDS011;25297;44.758;11.310;2023-02-01T03:26:09;46.15;;;26.40;;
39600;SDS011;25297;44.758;11.310;2023-02-01T03:28:39;45.27;;;26.20;;
39600;SDS011;25297;44.758;11.310;2023-02-01T03:31:11;51.17;;;25.88;;
39600;SDS011;25297;44.758;11.310;2023-02-01T03:33:38;44.17;;;25.10;;
39600;SDS011;25297;44.758;11.310;2023-02-01T03:41:33;41.08;;;23.52;;
39600;SDS011;25297;44.758;11.310;2023-02-01T03:44:15;37.38;;;22.95;;
39600;SDS011;25297;44.758;11.310;2023-02-01T03:46:52;41.13;;;23.38;;
39600;SDS011;25297;44.758;11.310;2023-02-01T03:49:36;41.45;;;25.02;;
39600;SDS011;25297;44.758;11.310;2023-02-01T03:52:06;43.05;;;25.55;;
39600;SDS011;25297;44.758;11.310;2023-02-01T03:54:41;44.47;;;24.67;;
39600;SDS011;25297;44.758;11.310;2023-02-01T03:57:09;44.92;;;27.23;;
39600;SDS011;25297;44.758;11.310;2023-02-01T03:59:41;50.28;;;28.58;;
39600;SDS011;25297;44.758;11.310;2023-02-01T04:02:08;46.15;;;27.23;;
39600;SDS011;25297;44.758;11.310;2023-02-01T04:04:34;49.28;;;27.58;;
39600;SDS011;25297;44.758;11.310;2023-02-01T04:07:00;46.28;;;23.98;;
39600;SDS011;25297;44.758;11.310;2023-02-01T04:09:26;42.15;;;24.30;;
39600;SDS011;25297;44.758;11.310;2023-02-01T04:11:51;41.58;;;24.08;;
39600;SDS011;25297;44.758;11.310;2023-02-01T04:14:17;41.13;;;23.77;;
39600;SDS011;25297;44.758;11.310;2023-02-01T04:16:43;46.35;;;28.63;;
39600;SDS011;25297;44.758;11.310;2023-02-01T04:19:08;52.15;;;27.23;;
39600;SDS011;25297;44.758;11.310;2023-02-01T04:21:34;46.75;;;26.63;;
39600;SDS011;25297;44.758;11.310;2023-02-01T04:24:00;46.05;;;27.63;;
39600;SDS011;25297;44.758;11.310;2023-02-01T04:26:25;47.53;;;25.70;;
39600;SDS011;25297;44.758;11.310;2023-02-01T04:28:51;40.45;;;23.08;;
39600;SDS011;25297;44.758;11.310;2023-02-01T04:31:18;40.55;;;23.23;;
39600;SDS011;25297;44.758;11.310;2023-02-01T04:33:53;51.40;;;27.65;;
39600;SDS011;25297;44.758;11.310;2023-02-01T04:36:22;49.05;;;26.20;;
39600;SDS011;25297;44.758;11.310;2023-02-01T04:38:51;45.85;;;26.65;;
39600;SDS011;25297;44.758;11.310;2023-02-01T04:41:17;47.88;;;25.60;;
39600;SDS011;25297;44.758;11.310;2023-02-01T04:43:44;46.83;;;25.15;;
39600;SDS011;25297;44.758;11.310;2023-02-01T04:46:11;45.00;;;24.02;;
39600;SDS011;25297;44.758;11.310;2023-02-01T04:48:37;40.92;;;23.05;;
39600;SDS011;25297;44.758;11.310;2023-02-01T04:51:02;40.25;;;24.60;;
39600;SDS011;25297;44.758;11.310;2023-02-01T04:53:28;44.28;;;24.65;;
39600;SDS011;25297;44.758;11.310;2023-02-01T04:55:54;39.83;;;22.60;;
39600;SDS011;25297;44.758;11.310;2023-02-01T04:58:21;42.97;;;23.45;;
39600;SDS011;25297;44.758;11.310;2023-02-01T05:00:47;45.42;;;25.00;;
39600;SDS011;25297;44.758;11.310;2023-02-01T05:03:12;46.58;;;24.80;;
39600;SDS011;25297;44.758;11.310;2023-02-01T05:05:38;47.55;;;24.35;;
39600;SDS011;25297;44.758;11.310;2023-02-01T05:08:04;46.63;;;26.35;;
39600;SDS011;25297;44.758;11.310;2023-02-01T05:10:30;47.92;;;23.92;;
39600;SDS011;25297;44.758;11.310;2023-02-01T05:12:55;46.05;;;23.75;;
39600;SDS011;25297;44.758;11.310;2023-02-01T05:15:40;42.08;;;23.02;;
39600;SDS011;25297;44.758;11.310;2023-02-01T05:18:05;45.65;;;25.05;;
39600;SDS011;25297;44.758;11.310;2023-02-01T05:20:31;41.40;;;24.35;;
39600;SDS011;25297;44.758;11.310;2023-02-01T05:22:57;38.40;;;22.52;;
39600;SDS011;25297;44.758;11.310;2023-02-01T05:25:22;43.78;;;22.98;;
39600;SDS011;25297;44.758;11.310;2023-02-01T05:27:48;43.45;;;23.15;;
39600;SDS011;25297;44.758;11.310;2023-02-01T05:30:14;43.85;;;23.55;;
39600;SDS011;25297;44.758;11.310;2023-02-01T05:32:40;40.55;;;23.13;;
39600;SDS011;25297;44.758;11.310;2023-02-01T05:35:05;37.50;;;22.80;;
39600;SDS011;25297;44.758;11.310;2023-02-01T05:37:31;38.83;;;21.98;;
39600;SDS011;25297;44.758;11.310;2023-02-01T05:39:57;37.13;;;22.35;;
39600;SDS011;25297;44.758;11.310;2023-02-01T05:42:23;35.33;;;21.42;;
39600;SDS011;25297;44.758;11.310;2023-02-01T05:44:48;37.65;;;21.45;;
39600;SDS011;25297;44.758;11.310;2023-02-01T05:47:14;44.17;;;23.00;;
39600;SDS011;25297;44.758;11.310;2023-02-01T05:49:39;37.80;;;21.25;;
39600;SDS011;25297;44.758;11.310;2023-02-01T05:52:05;36.20;;;22.27;;
39600;SDS011;25297;44.758;11.310;2023-02-01T05:54:31;37.53;;;21.83;;
39600;SDS011;25297;44.758;11.310;2023-02-01T05:56:56;40.30;;;22.25;;
39600;SDS011;25297;44.758;11.310;2023-02-01T05:59:22;37.45;;;22.33;;
39600;SDS011;25297;44.758;11.310;2023-02-01T06:01:47;52.03;;;28.70;;
39600;SDS011;25297;44.758;11.310;2023-02-01T06:04:13;39.22;;;23.25;;
39600;SDS011;25297;44.758;11.310;2023-02-01T06:06:39;42.65;;;22.75;;
39600;SDS011;25297;44.758;11.310;2023-02-01T06:09:05;43.38;;;22.63;;
39600;SDS011;25297;44.758;11.310;2023-02-01T06:11:31;39.15;;;20.98;;
39600;SDS011;25297;44.758;11.310;2023-02-01T06:13:56;32.47;;;20.45;;
39600;SDS011;25297;44.758;11.310;2023-02-01T06:16:22;34.78;;;20.35;;
39600;SDS011;25297;44.758;11.310;2023-02-01T06:18:48;35.00;;;20.17;;
39600;SDS011;25297;44.758;11.310;2023-02-01T06:21:14;39.35;;;20.58;;
39600;SDS011;25297;44.758;11.310;2023-02-01T06:23:48;33.72;;;19.35;;
39600;SDS011;25297;44.758;11.310;2023-02-01T06:26:17;34.75;;;19.85;;
39600;SDS011;25297;44.758;11.310;2023-02-01T06:28:43;37.92;;;20.92;;
39600;SDS011;25297;44.758;11.310;2023-02-01T06:31:09;37.08;;;20.95;;
39600;SDS011;25297;44.758;11.310;2023-02-01T06:33:35;41.33;;;21.80;;
39600;SDS011;25297;44.758;11.310;2023-02-01T06:36:02;38.17;;;21.63;;
39600;SDS011;25297;44.758;11.310;2023-02-01T06:38:30;36.80;;;20.63;;
39600;SDS011;25297;44.758;11.310;2023-02-01T06:40:57;34.83;;;19.63;;
39600;SDS011;25297;44.758;11.310;2023-02-01T06:43:23;35.15;;;18.83;;
39600;SDS011;25297;44.758;11.310;2023-02-01T06:45:51;34.33;;;17.90;;
39600;SDS011;25297;44.758;11.310;2023-02-01T06:48:17;37.15;;;19.15;;
39600;SDS011;25297;44.758;11.310;2023-02-01T06:50:43;36.63;;;19.92;;
39600;SDS011;25297;44.758;11.310;2023-02-01T06:53:09;38.03;;;18.52;;
39600;SDS011;25297;44.758;11.310;2023-02-01T06:55:35;38.22;;;18.35;;
39600;SDS011;25297;44.758;11.310;2023-02-01T06:58:01;33.58;;;19.50;;
39600;SDS011;25297;44.758;11.310;2023-02-01T07:00:27;47.22;;;21.30;;
39600;SDS011;25297;44.758;11.310;2023-02-01T07:02:53;41.45;;;21.35;;
39600;SDS011;25297;44.758;11.310;2023-02-01T07:05:20;39.70;;;19.10;;
39600;SDS011;25297;44.758;11.310;2023-02-01T07:07:46;34.95;;;18.23;;
39600;SDS011;25297;44.758;11.310;2023-02-01T07:10:11;33.17;;;18.27;;
39600;SDS011;25297;44.758;11.310;2023-02-01T07:12:37;35.97;;;19.08;;
39600;SDS011;25297;44.758;11.310;2023-02-01T07:15:03;32.33;;;18.13;;
39600;SDS011;25297;44.758;11.310;2023-02-01T07:17:30;52.05;;;20.63;;
39600;SDS011;25297;44.758;11.310;2023-02-01T07:19:56;34.80;;;19.58;;
39600;SDS011;25297;44.758;11.310;2023-02-01T07:22:23;32.05;;;17.95;;
39600;SDS011;25297;44.758;11.310;2023-02-01T07:24:49;34.67;;;18.58;;
39600;SDS011;25297;44.758;11.310;2023-02-01T07:27:14;32.38;;;17.48;;
39600;SDS011;25297;44.758;11.310;2023-02-01T07:29:40;30.13;;;16.45;;
39600;SDS011;25297;44.758;11.310;2023-02-01T07:32:06;28.98;;;16.02;;
39600;SDS011;25297;44.758;11.310;2023-02-01T07:34:31;26.80;;;15.57;;
39600;SDS011;25297;44.758;11.310;2023-02-01T07:36:57;31.98;;;17.98;;
39600;SDS011;25297;44.758;11.310;2023-02-01T07:39:23;29.95;;;18.63;;
39600;SDS011;25297;44.758;11.310;2023-02-01T07:41:49;36.38;;;19.70;;
39600;SDS011;25297;44.758;11.310;2023-02-01T07:44:14;42.35;;;21.52;;
39600;SDS011;25297;44.758;11.310;2023-02-01T07:46:41;45.05;;;23.63;;
39600;SDS011;25297;44.758;11.310;2023-02-01T07:49:08;39.85;;;22.67;;
39600;SDS011;25297;44.758;11.310;2023-02-01T07:51:34;39.08;;;22.67;;
39600;SDS011;25297;44.758;11.310;2023-02-01T07:53:59;40.65;;;22.23;;
39600;SDS011;25297;44.758;11.310;2023-02-01T07:56:25;38.92;;;21.52;;
39600;SDS011;25297;44.758;11.310;2023-02-01T07:58:51;42.40;;;21.60;;
39600;SDS011;25297;44.758;11.310;2023-02-01T08:01:20;61.70;;;31.70;;
39600;SDS011;25297;44.758;11.310;2023-02-01T08:03:52;43.83;;;24.38;;
39600;SDS011;25297;44.758;11.310;2023-02-01T08:06:19;44.50;;;23.75;;
39600;SDS011;25297;44.758;11.310;2023-02-01T08:08:45;39.70;;;22.95;;
39600;SDS011;25297;44.758;11.310;2023-02-01T08:11:11;61.03;;;32.53;;
39600;SDS011;25297;44.758;11.310;2023-02-01T08:13:37;53.40;;;33.88;;
39600;SDS011;25297;44.758;11.310;2023-02-01T08:16:04;59.08;;;34.72;;
39600;SDS011;25297;44.758;11.310;2023-02-01T08:18:31;62.20;;;39.65;;
39600;SDS011;25297;44.758;11.310;2023-02-01T08:21:02;56.55;;;32.53;;
39600;SDS011;25297;44.758;11.310;2023-02-01T08:23:36;48.13;;;28.05;;
39600;SDS011;25297;44.758;11.310;2023-02-01T08:26:13;50.85;;;30.85;;
39600;SDS011;25297;44.758;11.310;2023-02-01T08:28:40;52.97;;;33.08;;
39600;SDS011;25297;44.758;11.310;2023-02-01T08:31:08;63.30;;;36.00;;
39600;SDS011;25297;44.758;11.310;2023-02-01T08:33:35;55.90;;;32.97;;
39600;SDS011;25297;44.758;11.310;2023-02-01T08:36:03;53.22;;;32.15;;
39600;SDS011;25297;44.758;11.310;2023-02-01T08:38:30;54.30;;;32.38;;
39600;SDS011;25297;44.758;11.310;2023-02-01T08:40:56;50.08;;;30.33;;
39600;SDS011;25297;44.758;11.310;2023-02-01T08:43:22;49.90;;;28.98;;
39600;SDS011;25297;44.758;11.310;2023-02-01T08:45:48;46.72;;;29.27;;
39600;SDS011;25297;44.758;11.310;2023-02-01T08:48:14;52.88;;;28.75;;
39600;SDS011;25297;44.758;11.310;2023-02-01T08:50:40;48.03;;;28.88;;
39600;SDS011;25297;44.758;11.310;2023-02-01T08:53:06;44.00;;;27.95;;
39600;SDS011;25297;44.758;11.310;2023-02-01T08:55:31;53.75;;;29.67;;
39600;SDS011;25297;44.758;11.310;2023-02-01T08:57:57;47.67;;;28.30;;
39600;SDS011;25297;44.758;11.310;2023-02-01T09:00:23;49.55;;;28.73;;
39600;SDS011;25297;44.758;11.310;2023-02-01T09:02:48;47.22;;;28.45;;
39600;SDS011;25297;44.758;11.310;2023-02-01T09:05:14;50.80;;;28.02;;
39600;SDS011;25297;44.758;11.310;2023-02-01T09:07:41;46.03;;;25.80;;
39600;SDS011;25297;44.758;11.310;2023-02-01T09:10:07;53.53;;;29.60;;
39600;SDS011;25297;44.758;11.310;2023-02-01T09:12:34;45.72;;;27.92;;
39600;SDS011;25297;44.758;11.310;2023-02-01T09:15:00;49.72;;;27.70;;
39600;SDS011;25297;44.758;11.310;2023-02-01T09:17:26;45.97;;;28.10;;
39600;SDS011;25297;44.758;11.310;2023-02-01T09:19:52;44.42;;;25.30;;
39600;SDS011;25297;44.758;11.310;2023-02-01T09:22:18;45.03;;;25.02;;
39600;SDS011;25297;44.758;11.310;2023-02-01T09:24:44;40.72;;;25.48;;
39600;SDS011;25297;44.758;11.310;2023-02-01T09:27:09;47.17;;;27.20;;
39600;SDS011;25297;44.758;11.310;2023-02-01T09:29:35;42.08;;;27.85;;
39600;SDS011;25297;44.758;11.310;2023-02-01T09:32:01;42.35;;;27.70;;
39600;SDS011;25297;44.758;11.310;2023-02-01T09:34:27;46.78;;;27.88;;
39600;SDS011;25297;44.758;11.310;2023-02-01T09:36:53;49.33;;;29.20;;
39600;SDS011;25297;44.758;11.310;2023-02-01T09:39:19;51.22;;;30.02;;
39600;SDS011;25297;44.758;11.310;2023-02-01T09:41:59;54.97;;;32.05;;
39600;SDS011;25297;44.758;11.310;2023-02-01T09:44:52;57.25;;;31.88;;
39600;SDS011;25297;44.758;11.310;2023-02-01T09:47:25;60.55;;;35.20;;
39600;SDS011;25297;44.758;11.310;2023-02-01T09:50:00;62.22;;;36.90;;
39600;SDS011;25297;44.758;11.310;2023-02-01T09:52:36;67.00;;;39.83;;
39600;SDS011;25297;44.758;11.310;2023-02-01T09:55:11;69.95;;;40.63;;
39600;SDS011;25297;44.758;11.310;2023-02-01T10:00:30;62.35;;;37.47;;
39600;SDS011;25297;44.758;11.310;2023-02-01T10:03:00;62.58;;;38.45;;
39600;SDS011;25297;44.758;11.310;2023-02-01T10:11:04;276.65;;;154.40;;
39600;SDS011;25297;44.758;11.310;2023-02-01T10:19:24;82.85;;;55.38;;
39600;SDS011;25297;44.758;11.310;2023-02-01T10:22:05;80.68;;;47.03;;
39600;SDS011;25297;44.758;11.310;2023-02-01T10:24:41;76.75;;;47.47;;
39600;SDS011;25297;44.758;11.310;2023-02-01T10:29:44;83.88;;;48.70;;
39600;SDS011;25297;44.758;11.310;2023-02-01T10:32:14;81.43;;;48.58;;
39600;SDS011;25297;44.758;11.310;2023-02-01T10:35:12;70.82;;;44.75;;
39600;SDS011;25297;44.758;11.310;2023-02-01T10:37:41;83.85;;;50.42;;
39600;SDS011;25297;44.758;11.310;2023-02-01T10:42:47;78.63;;;46.53;;
39600;SDS011;25297;44.758;11.310;2023-02-01T10:45:21;76.63;;;45.60;;
39600;SDS011;25297;44.758;11.310;2023-02-01T10:47:51;81.85;;;45.97;;
39600;SDS011;25297;44.758;11.310;2023-02-01T10:51:05;73.68;;;46.90;;
39600;SDS011;25297;44.758;11.310;2023-02-01T10:53:15;74.22;;;44.88;;
39600;SDS011;25297;44.758;11.310;2023-02-01T10:55:48;73.53;;;43.63;;
39600;SDS011;25297;44.758;11.310;2023-02-01T10:58:16;68.88;;;40.65;;
39600;SDS011;25297;44.758;11.310;2023-02-01T11:01:00;65.85;;;37.25;;
39600;SDS011;25297;44.758;11.310;2023-02-01T11:03:36;61.38;;;39.53;;
39600;SDS011;25297;44.758;11.310;2023-02-01T11:06:19;64.75;;;37.67;;
39600;SDS011;25297;44.758;11.310;2023-02-01T11:08:52;64.97;;;38.05;;
39600;SDS011;25297;44.758;11.310;2023-02-01T11:11:20;64.57;;;37.45;;
39600;SDS011;25297;44.758;11.310;2023-02-01T11:13:53;61.85;;;37.40;;
39600;SDS011;25297;44.758;11.310;2023-02-01T11:16:33;59.63;;;37.15;;
39600;SDS011;25297;44.758;11.310;2023-02-01T11:19:00;65.32;;;36.85;;
39600;SDS011;25297;44.758;11.310;2023-02-01T11:21:26;62.97;;;36.33;;
39600;SDS011;25297;44.758;11.310;2023-02-01T11:23:52;60.50;;;36.78;;
39600;SDS011;25297;44.758;11.310;2023-02-01T11:26:25;60.13;;;36.13;;
39600;SDS011;25297;44.758;11.310;2023-02-01T11:29:14;59.08;;;35.75;;
39600;SDS011;25297;44.758;11.310;2023-02-01T11:31:42;55.95;;;35.35;;
39600;SDS011;25297;44.758;11.310;2023-02-01T11:36:44;60.17;;;36.88;;
39600;SDS011;25297;44.758;11.310;2023-02-01T11:39:18;61.63;;;38.90;;
39600;SDS011;25297;44.758;11.310;2023-02-01T11:41:57;63.00;;;37.08;;
39600;SDS011;25297;44.758;11.310;2023-02-01T11:44:37;60.53;;;37.70;;
39600;SDS011;25297;44.758;11.310;2023-02-01T11:49:45;59.17;;;36.45;;
39600;SDS011;25297;44.758;11.310;2023-02-01T12:11:04;60.33;;;35.10;;
39600;SDS011;25297;44.758;11.310;2023-02-01T12:24:37;61.72;;;34.33;;
39600;SDS011;25297;44.758;11.310;2023-02-01T12:36:07;55.72;;;34.28;;
39600;SDS011;25297;44.758;11.310;2023-02-01T12:41:23;54.20;;;33.33;;
39600;SDS011;25297;44.758;11.310;2023-02-01T12:44:12;50.90;;;32.00;;
39600;SDS011;25297;44.758;11.310;2023-02-01T12:47:03;51.80;;;32.47;;
39600;SDS011;25297;44.758;11.310;2023-02-01T12:52:20;51.88;;;31.80;;
39600;SDS011;25297;44.758;11.310;2023-02-01T12:55:14;45.72;;;29.27;;
39600;SDS011;25297;44.758;11.310;2023-02-01T12:58:01;49.63;;;30.15;;
39600;SDS011;25297;44.758;11.310;2023-02-01T13:03:14;42.78;;;27.98;;
39600;SDS011;25297;44.758;11.310;2023-02-01T13:08:37;41.53;;;25.15;;
39600;SDS011;25297;44.758;11.310;2023-02-01T13:11:18;46.58;;;26.98;;
39600;SDS011;25297;44.758;11.310;2023-02-01T13:16:27;37.55;;;22.85;;
39600;SDS011;25297;44.758;11.310;2023-02-01T13:22:12;39.30;;;23.85;;
39600;SDS011;25297;44.758;11.310;2023-02-01T13:24:57;38.92;;;22.05;;
39600;SDS011;25297;44.758;11.310;2023-02-01T13:27:29;39.95;;;23.98;;
39600;SDS011;25297;44.758;11.310;2023-02-01T13:29:58;36.97;;;24.13;;
39600;SDS011;25297;44.758;11.310;2023-02-01T13:33:10;37.80;;;22.55;;
39600;SDS011;25297;44.758;11.310;2023-02-01T13:44:16;33.60;;;18.38;;
39600;SDS011;25297;44.758;11.310;2023-02-01T13:46:50;32.10;;;19.02;;
39600;SDS011;25297;44.758;11.310;2023-02-01T13:49:22;32.92;;;19.00;;
39600;SDS011;25297;44.758;11.310;2023-02-01T13:51:51;32.97;;;18.70;;
39600;SDS011;25297;44.758;11.310;2023-02-01T13:56:56;33.67;;;17.52;;
39600;SDS011;25297;44.758;11.310;2023-02-01T14:05:08;32.28;;;18.00;;
39600;SDS011;25297;44.758;11.310;2023-02-01T14:07:35;27.20;;;16.05;;
39600;SDS011;25297;44.758;11.310;2023-02-01T14:13:05;29.08;;;15.68;;
39600;SDS011;25297;44.758;11.310;2023-02-01T14:15:37;30.35;;;16.73;;
39600;SDS011;25297;44.758;11.310;2023-02-01T14:18:29;34.80;;;17.27;;
39600;SDS011;25297;44.758;11.310;2023-02-01T14:23:41;26.52;;;15.98;;
39600;SDS011;25297;44.758;11.310;2023-02-01T14:26:12;28.27;;;16.05;;
39600;SDS011;25297;44.758;11.310;2023-02-01T14:28:45;26.17;;;15.63;;
39600;SDS011;25297;44.758;11.310;2023-02-01T14:34:12;30.42;;;16.95;;
39600;SDS011;25297;44.758;11.310;2023-02-01T14:36:58;27.23;;;16.15;;
39600;SDS011;25297;44.758;11.310;2023-02-01T14:39:28;27.88;;;15.68;;
39600;SDS011;25297;44.758;11.310;2023-02-01T14:42:03;28.45;;;15.52;;
39600;SDS011;25297;44.758;11.310;2023-02-01T14:44:38;26.90;;;16.17;;
39600;SDS011;25297;44.758;11.310;2023-02-01T14:52:38;28.70;;;15.93;;
39600;SDS011;25297;44.758;11.310;2023-02-01T14:55:17;27.88;;;15.77;;
39600;SDS011;25297;44.758;11.310;2023-02-01T14:57:50;27.63;;;15.57;;
39600;SDS011;25297;44.758;11.310;2023-02-01T15:00:21;28.88;;;15.75;;
39600;SDS011;25297;44.758;11.310;2023-02-01T15:02:48;26.42;;;15.15;;
39600;SDS011;25297;44.758;11.310;2023-02-01T15:05:31;29.77;;;16.67;;
39600;SDS011;25297;44.758;11.310;2023-02-01T15:08:00;27.83;;;16.60;;
39600;SDS011;25297;44.758;11.310;2023-02-01T15:10:49;27.08;;;15.68;;
39600;SDS011;25297;44.758;11.310;2023-02-01T15:13:24;28.27;;;15.80;;
39600;SDS011;25297;44.758;11.310;2023-02-01T15:16:10;26.65;;;16.08;;
39600;SDS011;25297;44.758;11.310;2023-02-01T15:18:38;29.60;;;15.80;;
39600;SDS011;25297;44.758;11.310;2023-02-01T15:21:05;32.63;;;16.30;;
39600;SDS011;25297;44.758;11.310;2023-02-01T15:23:32;28.55;;;17.73;;
39600;SDS011;25297;44.758;11.310;2023-02-01T15:25:58;33.97;;;17.38;;
39600;SDS011;25297;44.758;11.310;2023-02-01T15:28:24;28.42;;;16.65;;
39600;SDS011;25297;44.758;11.310;2023-02-01T15:30:55;30.45;;;17.52;;
39600;SDS011;25297;44.758;11.310;2023-02-01T15:33:22;27.80;;;16.30;;
39600;SDS011;25297;44.758;11.310;2023-02-01T15:38:42;28.70;;;17.40;;
39600;SDS011;25297;44.758;11.310;2023-02-01T15:43:41;32.78;;;18.00;;
39600;SDS011;25297;44.758;11.310;2023-02-01T15:46:09;29.80;;;18.55;;
39600;SDS011;25297;44.758;11.310;2023-02-01T15:48:38;35.03;;;19.75;;
39600;SDS011;25297;44.758;11.310;2023-02-01T15:51:17;32.88;;;18.13;;
39600;SDS011;25297;44.758;11.310;2023-02-01T15:53:56;34.28;;;20.25;;
39600;SDS011;25297;44.758;11.310;2023-02-01T15:56:29;32.58;;;17.95;;
39600;SDS011;25297;44.758;11.310;2023-02-01T15:59:02;40.30;;;19.63;;
39600;SDS011;25297;44.758;11.310;2023-02-01T16:01:34;29.73;;;18.73;;
39600;SDS011;25297;44.758;11.310;2023-02-01T16:06:50;36.22;;;19.00;;
39600;SDS011;25297;44.758;11.310;2023-02-01T16:09:19;31.23;;;16.85;;
39600;SDS011;25297;44.758;11.310;2023-02-01T16:14:12;30.02;;;17.48;;
39600;SDS011;25297;44.758;11.310;2023-02-01T16:16:38;28.13;;;17.33;;
39600;SDS011;25297;44.758;11.310;2023-02-01T16:19:03;33.60;;;18.17;;
39600;SDS011;25297;44.758;11.310;2023-02-01T16:21:29;28.70;;;16.08;;
39600;SDS011;25297;44.758;11.310;2023-02-01T16:23:54;32.83;;;17.48;;
39600;SDS011;25297;44.758;11.310;2023-02-01T16:26:20;29.08;;;17.48;;
39600;SDS011;25297;44.758;11.310;2023-02-01T16:28:46;34.53;;;17.05;;
39600;SDS011;25297;44.758;11.310;2023-02-01T16:31:14;39.47;;;22.00;;
39600;SDS011;25297;44.758;11.310;2023-02-01T16:33:50;36.13;;;19.80;;
39600;SDS011;25297;44.758;11.310;2023-02-01T16:36:17;29.48;;;18.90;;
39600;SDS011;25297;44.758;11.310;2023-02-01T16:38:43;33.75;;;18.17;;
39600;SDS011;25297;44.758;11.310;2023-02-01T16:41:15;32.80;;;19.55;;
39600;SDS011;25297;44.758;11.310;2023-02-01T16:43:42;33.15;;;18.10;;
39600;SDS011;25297;44.758;11.310;2023-02-01T16:46:15;29.75;;;19.08;;
39600;SDS011;25297;44.758;11.310;2023-02-01T16:48:45;29.23;;;18.15;;
39600;SDS011;25297;44.758;11.310;2023-02-01T16:51:15;41.97;;;21.20;;
39600;SDS011;25297;44.758;11.310;2023-02-01T16:53:42;36.85;;;19.48;;
39600;SDS011;25297;44.758;11.310;2023-02-01T16:56:19;33.88;;;20.95;;
39600;SDS011;25297;44.758;11.310;2023-02-01T16:58:48;36.42;;;19.38;;
39600;SDS011;25297;44.758;11.310;2023-02-01T17:01:16;31.92;;;18.63;;
39600;SDS011;25297;44.758;11.310;2023-02-01T17:03:44;44.28;;;19.98;;
39600;SDS011;25297;44.758;11.310;2023-02-01T17:06:11;44.33;;;21.58;;
39600;SDS011;25297;44.758;11.310;2023-02-01T17:08:47;42.05;;;22.23;;
39600;SDS011;25297;44.758;11.310;2023-02-01T17:11:19;48.72;;;23.27;;
39600;SDS011;25297;44.758;11.310;2023-02-01T17:13:46;38.92;;;20.50;;